Time;durP1;ratioP1;P1;durP2;ratioP2;P2;SDS_P1;SDS_P2;PMS_P1;PMS_P2;Temp;Humidity;BMP_temperature;BMP_pressure;BME280_temperature;BME280_humidity;BME280_pressure;Samples;Min_cycle;Max_cycle;Signal;HPM_P1;HPM_P2
2022/01/28 00:02:43;;;;;;;17.60;12.50;;;1.30;99.90;;;;;;5056996;28;20205;-70
2022/01/28 00:05:15;;;;;;;17.57;12.83;;;1.20;99.90;;;;;;5056320;28;20201;-70
2022/01/28 00:07:42;;;;;;;17.10;12.90;;;1.20;99.90;;;;;;5054107;28;20194;-70
2022/01/28 00:10:09;;;;;;;16.70;12.83;;;1.20;99.90;;;;;;5056474;28;20216;-70
2022/01/28 00:12:42;;;;;;;18.27;14.27;;;1.20;99.90;;;;;;5057150;28;20193;-70
2022/01/28 00:15:19;;;;;;;20.20;14.50;;;1.10;99.90;;;;;;5056157;28;20229;-70
2022/01/28 00:18:25;;;;;;;21.47;14.10;;;1.10;99.90;;;;;;5056106;28;20224;-70
2022/01/28 00:21:08;;;;;;;20.40;15.00;;;1.10;99.90;;;;;;5058392;28;20209;-70
2022/01/28 00:37:37;;;;;;;23.23;16.77;;;1.40;99.90;;;;;;5053782;28;20239;-69
2022/01/28 00:40:05;;;;;;;22.47;16.60;;;1.30;99.90;;;;;;5053847;28;20212;-70
2022/01/28 00:42:31;;;;;;;23.90;16.10;;;1.30;99.90;;;;;;5053741;28;20604;-70
2022/01/28 00:44:58;;;;;;;23.37;16.33;;;1.30;99.90;;;;;;5053479;28;20202;-71
2022/01/28 00:47:24;;;;;;;24.63;17.27;;;1.30;99.90;;;;;;5053844;28;20202;-71
2022/01/28 00:49:52;;;;;;;24.37;15.50;;;1.30;99.90;;;;;;5053751;28;20201;-71
2022/01/28 00:52:19;;;;;;;22.13;15.93;;;1.30;99.90;;;;;;5053736;28;20276;-71
2022/01/28 00:54:46;;;;;;;22.87;16.73;;;1.30;99.90;;;;;;5054004;28;20226;-70
2022/01/28 00:57:12;;;;;;;22.67;16.27;;;1.40;99.90;;;;;;5053784;28;20263;-71
2022/01/28 00:59:39;;;;;;;19.33;14.13;;;1.40;99.90;;;;;;5053967;28;20255;-71
2022/01/28 01:02:06;;;;;;;22.30;14.73;;;1.40;99.90;;;;;;5057461;28;20197;-71
2022/01/28 01:04:32;;;;;;;26.30;17.37;;;1.40;99.90;;;;;;5059109;28;20210;-70
2022/01/28 01:07:01;;;;;;;27.03;17.57;;;1.40;99.90;;;;;;5058121;28;20596;-71
2022/01/28 01:09:28;;;;;;;28.90;17.77;;;1.40;99.90;;;;;;5057892;28;20202;-71
2022/01/28 01:11:54;;;;;;;26.03;18.37;;;1.30;99.90;;;;;;5057569;28;20213;-71
2022/01/28 01:14:21;;;;;;;28.27;19.33;;;1.40;99.90;;;;;;5058383;28;20275;-71
2022/01/28 01:17:02;;;;;;;28.00;19.10;;;1.40;99.90;;;;;;5058147;28;20205;-71
2022/01/28 01:19:34;;;;;;;32.53;19.97;;;1.40;99.90;;;;;;5058334;28;20280;-70
2022/01/28 01:22:02;;;;;;;25.80;17.97;;;1.40;99.90;;;;;;5061482;28;20198;-71
2022/01/28 01:24:35;;;;;;;29.27;18.27;;;1.50;99.90;;;;;;5062661;28;20243;-71
2022/01/28 01:27:02;;;;;;;28.07;17.07;;;1.50;99.90;;;;;;5062674;28;20232;-71
2022/01/28 01:29:28;;;;;;;25.60;16.77;;;1.50;99.90;;;;;;5062420;28;20198;-71
2022/01/28 01:32:01;;;;;;;31.73;19.90;;;1.50;99.90;;;;;;5063478;28;20611;-71
2022/01/28 01:34:28;;;;;;;29.80;18.90;;;1.40;99.90;;;;;;5060234;28;20312;-71
2022/01/28 01:36:55;;;;;;;30.07;18.80;;;1.50;99.90;;;;;;5059218;28;20213;-71
2022/01/28 01:39:27;;;;;;;29.00;17.97;;;1.50;99.90;;;;;;5059047;28;20198;-71
2022/01/28 01:41:58;;;;;;;31.20;19.30;;;1.50;99.90;;;;;;5058818;28;20252;-71
2022/01/28 01:44:36;;;;;;;30.77;20.23;;;1.50;99.90;;;;;;5061132;28;20217;-71
2022/01/28 01:52:01;;;;;;;26.87;16.53;;;1.50;99.90;;;;;;5062436;28;20248;-71
2022/01/28 01:52:48;;;;;;;28.47;17.10;;;1.40;99.90;;;;;;5062014;28;20236;-70
2022/01/28 01:55:17;;;;;;;25.93;17.90;;;1.40;99.90;;;;;;5063120;28;20229;-70
2022/01/28 01:57:45;;;;;;;28.00;19.23;;;1.50;99.90;;;;;;5063179;28;20271;-70
2022/01/28 02:00:13;;;;;;;27.60;19.10;;;1.50;99.90;;;;;;5058836;28;20243;-69
2022/01/28 02:02:39;;;;;;;31.57;18.60;;;1.50;99.90;;;;;;5056936;28;20194;-70
2022/01/28 02:05:07;;;;;;;23.70;14.93;;;1.50;99.90;;;;;;5056744;28;20248;-70
2022/01/28 02:07:33;;;;;;;28.93;18.53;;;1.50;99.90;;;;;;5056331;28;20723;-70
2022/01/28 02:10:00;;;;;;;28.40;18.33;;;1.60;99.90;;;;;;5055737;28;20197;-70
2022/01/28 02:12:28;;;;;;;29.47;19.33;;;1.60;99.90;;;;;;5059581;28;20198;-70
2022/01/28 02:14:55;;;;;;;27.10;18.13;;;1.60;99.90;;;;;;5060881;28;20391;-70
2022/01/28 02:17:21;;;;;;;28.63;18.63;;;1.60;99.90;;;;;;5061820;28;20202;-70
2022/01/28 02:19:48;;;;;;;27.80;18.40;;;1.50;99.90;;;;;;5060003;28;20198;-70
2022/01/28 02:22:19;;;;;;;25.60;17.53;;;1.40;99.90;;;;;;5060524;28;20224;-70
2022/01/28 02:24:46;;;;;;;29.50;17.83;;;1.30;99.90;;;;;;5060192;28;20229;-70
2022/01/28 02:27:15;;;;;;;30.93;20.17;;;1.30;99.90;;;;;;5059628;28;20200;-71
2022/01/28 02:29:44;;;;;;;28.87;19.53;;;1.30;99.90;;;;;;5057274;28;20297;-70
2022/01/28 02:32:10;;;;;;;32.13;18.83;;;1.40;99.90;;;;;;5055001;28;20201;-70
2022/01/28 02:34:39;;;;;;;31.40;20.50;;;1.40;99.90;;;;;;5057093;28;20221;-71
2022/01/28 02:37:06;;;;;;;29.70;19.30;;;1.40;99.90;;;;;;5061418;28;20292;-70
2022/01/28 02:39:34;;;;;;;32.17;19.50;;;1.40;99.90;;;;;;5060135;28;20198;-70
2022/01/28 02:42:11;;;;;;;26.50;18.77;;;1.30;99.90;;;;;;5060712;28;20206;-71
2022/01/28 02:44:46;;;;;;;27.27;18.17;;;1.30;99.90;;;;;;5060624;28;20265;-70
2022/01/28 02:47:16;;;;;;;26.53;18.50;;;1.30;99.90;;;;;;5060598;28;20192;-70
2022/01/28 02:49:44;;;;;;;30.57;18.57;;;1.30;99.90;;;;;;5059431;28;20206;-71
2022/01/28 02:52:19;;;;;;;32.07;19.67;;;1.40;99.90;;;;;;5059054;28;20220;-71
2022/01/28 02:54:49;;;;;;;28.27;18.33;;;1.40;99.90;;;;;;5058906;28;20278;-71
2022/01/28 02:57:22;;;;;;;25.70;17.90;;;1.40;99.90;;;;;;5058860;28;20206;-71
2022/01/28 02:59:49;;;;;;;28.60;18.37;;;1.50;99.90;;;;;;5055154;28;20723;-71
2022/01/28 03:02:15;;;;;;;28.63;18.63;;;1.50;99.90;;;;;;5053793;28;20247;-70
2022/01/28 03:05:16;;;;;;;28.97;19.53;;;1.50;99.90;;;;;;5054688;28;20202;-70
2022/01/28 03:07:36;;;;;;;27.93;17.50;;;1.60;99.90;;;;;;5054521;28;20201;-70
2022/01/28 03:10:27;;;;;;;29.60;18.40;;;1.60;99.90;;;;;;5055055;28;20201;-71
2022/01/28 03:13:14;;;;;;;28.37;18.80;;;1.60;99.90;;;;;;5055836;28;20208;-71
2022/01/28 03:15:42;;;;;;;24.03;16.00;;;1.60;99.90;;;;;;5054233;28;20593;-71
2022/01/28 03:18:12;;;;;;;31.37;17.97;;;1.60;99.90;;;;;;5054614;28;20193;-70
2022/01/28 03:20:42;;;;;;;28.10;18.37;;;1.50;99.90;;;;;;5054547;28;20208;-70
2022/01/28 03:23:10;;;;;;;31.00;18.80;;;1.30;99.90;;;;;;5054431;28;20220;-71
2022/01/28 03:25:43;;;;;;;24.53;16.83;;;1.20;99.90;;;;;;5054154;28;20194;-72
2022/01/28 03:28:09;;;;;;;25.70;16.37;;;1.10;99.90;;;;;;5054244;28;20202;-71
2022/01/28 03:30:36;;;;;;;25.87;17.13;;;1.10;99.90;;;;;;5054301;28;20665;-71
2022/01/28 03:33:03;;;;;;;26.23;18.13;;;1.00;99.90;;;;;;5054268;28;20239;-71
2022/01/28 03:35:30;;;;;;;31.33;18.00;;;1.00;99.90;;;;;;5054223;28;20283;-71
2022/01/28 03:38:00;;;;;;;28.37;18.20;;;1.00;99.90;;;;;;5054064;28;20287;-71
2022/01/28 03:40:28;;;;;;;25.97;17.10;;;1.00;99.90;;;;;;5053929;28;20659;-71
2022/01/28 03:42:56;;;;;;;29.77;18.27;;;1.10;99.90;;;;;;5054115;28;20201;-71
2022/01/28 03:45:22;;;;;;;28.83;17.03;;;1.10;99.90;;;;;;5053938;28;20255;-71
2022/01/28 03:47:49;;;;;;;26.10;17.27;;;1.10;99.90;;;;;;5054140;28;20255;-71
2022/01/28 03:50:16;;;;;;;27.47;17.47;;;1.20;99.90;;;;;;5054018;28;20240;-70
2022/01/28 03:52:42;;;;;;;28.57;18.53;;;1.20;99.90;;;;;;5053746;28;20229;-71
2022/01/28 03:55:10;;;;;;;23.30;14.57;;;1.20;99.90;;;;;;5053629;28;20229;-71
2022/01/28 03:57:37;;;;;;;28.17;18.10;;;1.30;99.90;;;;;;5054119;28;20201;-71
2022/01/28 04:00:07;;;;;;;26.03;16.10;;;1.30;99.90;;;;;;5053915;28;20248;-71
2022/01/28 04:02:37;;;;;;;28.53;17.67;;;1.30;99.90;;;;;;5053713;28;20201;-70
2022/01/28 04:13:22;;;;;;;24.50;14.73;;;1.30;99.90;;;;;;5053532;28;20201;-71
2022/01/28 04:16:04;;;;;;;23.00;14.27;;;1.30;99.90;;;;;;5053361;28;20684;-71
2022/01/28 04:18:30;;;;;;;18.53;12.60;;;1.30;99.90;;;;;;5053638;28;20225;-70
2022/01/28 04:20:57;;;;;;;18.23;12.07;;;1.20;99.90;;;;;;5053510;28;20198;-70
2022/01/28 04:23:24;;;;;;;17.77;12.20;;;1.30;99.90;;;;;;5053547;28;20252;-70
2022/01/28 04:25:50;;;;;;;17.47;12.97;;;1.30;99.90;;;;;;5053219;28;20252;-70
2022/01/28 04:28:17;;;;;;;18.40;12.73;;;1.30;99.90;;;;;;5053293;28;20206;-71
2022/01/28 04:30:44;;;;;;;17.60;12.03;;;1.20;99.90;;;;;;5053203;28;20657;-70
2022/01/28 04:33:11;;;;;;;15.40;11.33;;;1.20;99.90;;;;;;5053399;28;20197;-71
2022/01/28 04:35:38;;;;;;;18.10;12.50;;;1.30;99.90;;;;;;5053070;28;20217;-70
2022/01/28 04:38:17;;;;;;;17.63;12.03;;;1.20;99.90;;;;;;5053305;28;20197;-70
2022/01/28 04:40:46;;;;;;;16.30;10.63;;;1.30;99.90;;;;;;5053048;28;20569;-70
2022/01/28 04:43:19;;;;;;;21.73;13.30;;;1.30;99.90;;;;;;5053565;28;20198;-70
2022/01/28 04:45:52;;;;;;;17.77;12.83;;;1.30;99.90;;;;;;5053206;28;20194;-70
2022/01/28 04:48:27;;;;;;;17.83;13.77;;;1.30;99.90;;;;;;5053222;28;20221;-71
2022/01/28 04:51:09;;;;;;;24.23;14.67;;;1.40;99.90;;;;;;5053128;28;20220;-70
2022/01/28 04:53:52;;;;;;;21.37;13.73;;;1.30;99.90;;;;;;5053196;28;20238;-70
2022/01/28 04:56:31;;;;;;;20.83;14.30;;;1.40;99.90;;;;;;5055290;28;20278;-70
2022/01/28 04:59:20;;;;;;;20.50;13.40;;;1.40;99.90;;;;;;5057290;28;20232;-70
2022/01/28 05:02:14;;;;;;;24.03;15.80;;;1.40;99.90;;;;;;5057486;28;20205;-70
2022/01/28 05:05:01;;;;;;;24.07;15.80;;;1.40;99.90;;;;;;5057062;28;20202;-70
2022/01/28 05:13:37;;;;;;;21.73;15.57;;;1.40;99.90;;;;;;4995459;28;20203;-70
2022/01/28 05:27:05;;;;;;;23.23;16.23;;;1.40;99.90;;;;;;5035447;28;20212;-71
2022/01/28 05:29:32;;;;;;;31.53;16.80;;;1.40;99.90;;;;;;5056830;28;20564;-70
2022/01/28 05:31:59;;;;;;;27.23;17.13;;;1.50;99.90;;;;;;5056723;28;20231;-70
2022/01/28 05:34:27;;;;;;;21.13;15.80;;;1.50;99.90;;;;;;5056677;28;20194;-70
2022/01/28 05:36:56;;;;;;;23.50;16.93;;;1.50;99.90;;;;;;5056210;28;20701;-69
2022/01/28 05:39:23;;;;;;;23.67;15.83;;;1.60;99.90;;;;;;5056511;28;20202;-70
2022/01/28 05:41:50;;;;;;;26.27;16.67;;;1.50;99.90;;;;;;5057020;28;20197;-70
2022/01/28 05:44:18;;;;;;;22.77;14.40;;;1.50;99.90;;;;;;5056705;28;20197;-69
2022/01/28 05:46:45;;;;;;;23.43;15.97;;;1.50;99.90;;;;;;5056534;28;20296;-69
2022/01/28 05:49:13;;;;;;;23.20;15.90;;;1.50;99.90;;;;;;5056776;28;20588;-69
2022/01/28 05:51:40;;;;;;;28.77;15.80;;;1.60;99.90;;;;;;5056163;28;20237;-69
2022/01/28 05:54:08;;;;;;;23.13;14.63;;;1.50;99.90;;;;;;5056220;28;20221;-69
2022/01/28 05:56:34;;;;;;;20.57;14.53;;;1.60;99.90;;;;;;5056779;28;20237;-70
2022/01/28 05:59:01;;;;;;;20.67;12.90;;;1.60;99.90;;;;;;5056111;28;20255;-69
2022/01/28 06:01:28;;;;;;;22.70;14.17;;;1.50;99.90;;;;;;5055985;28;20236;-70
2022/01/28 06:03:54;;;;;;;19.90;13.77;;;1.60;99.90;;;;;;5055960;28;20224;-69
2022/01/28 06:06:24;;;;;;;17.30;11.80;;;1.50;99.90;;;;;;5055676;28;20202;-69
2022/01/28 06:08:52;;;;;;;16.00;11.93;;;1.50;99.90;;;;;;5058951;28;20233;-82
2022/01/28 06:11:21;;;;;;;16.70;11.07;;;1.50;99.90;;;;;;5055823;28;20335;-69
2022/01/28 06:13:48;;;;;;;16.47;10.70;;;1.50;99.90;;;;;;5055972;28;20201;-69
2022/01/28 06:16:16;;;;;;;14.73;9.90;;;1.50;99.90;;;;;;5055805;28;20263;-70
2022/01/28 06:18:44;;;;;;;12.67;8.77;;;1.50;99.90;;;;;;5055581;28;20198;-70
2022/01/28 06:21:12;;;;;;;12.17;7.97;;;1.50;99.90;;;;;;5055815;28;20235;-70
2022/01/28 06:23:38;;;;;;;11.33;7.40;;;1.50;99.90;;;;;;5055981;28;20210;-69
2022/01/28 06:26:06;;;;;;;11.40;7.73;;;1.50;99.90;;;;;;5055733;28;20731;-69
2022/01/28 06:28:34;;;;;;;9.00;6.43;;;1.50;99.90;;;;;;5055522;28;20205;-69
2022/01/28 06:31:01;;;;;;;9.20;6.57;;;1.50;99.90;;;;;;5055468;28;20602;-70
2022/01/28 06:33:27;;;;;;;10.43;6.40;;;1.60;99.90;;;;;;5055383;28;20608;-69
2022/01/28 06:35:54;;;;;;;10.73;7.03;;;1.50;99.90;;;;;;5055670;28;20624;-70
2022/01/28 06:38:21;;;;;;;11.40;8.57;;;1.50;99.90;;;;;;5055708;28;20202;-70
2022/01/28 06:40:49;;;;;;;19.83;14.80;;;1.50;99.90;;;;;;5055682;28;20271;-69
2022/01/28 06:43:16;;;;;;;9.13;6.43;;;1.50;99.90;;;;;;5055581;28;20198;-71
2022/01/28 06:45:44;;;;;;;10.90;7.40;;;1.50;99.90;;;;;;5055514;28;20205;-69
2022/01/28 06:48:11;;;;;;;10.60;7.63;;;1.50;99.90;;;;;;5055292;28;20255;-69
2022/01/28 06:50:38;;;;;;;10.17;7.73;;;1.50;99.90;;;;;;5057704;28;20194;-70
2022/01/28 06:53:05;;;;;;;12.73;8.17;;;1.50;99.90;;;;;;5055916;28;20234;-70
2022/01/28 06:55:31;;;;;;;11.77;7.20;;;1.50;99.90;;;;;;5055090;28;20252;-70
2022/01/28 06:57:58;;;;;;;11.53;8.47;;;1.50;99.90;;;;;;5055330;28;20205;-70
2022/01/28 07:00:25;;;;;;;13.33;8.87;;;1.40;99.90;;;;;;5055129;28;20210;-70
2022/01/28 07:02:52;;;;;;;14.40;9.47;;;1.40;99.90;;;;;;5055722;28;20201;-69
2022/01/28 07:05:19;;;;;;;14.77;10.40;;;1.40;99.90;;;;;;5055237;28;20227;-69
2022/01/28 07:07:47;;;;;;;17.10;11.07;;;1.40;99.90;;;;;;5055001;28;20288;-70
2022/01/28 07:10:14;;;;;;;17.07;11.47;;;1.40;99.90;;;;;;5055010;28;20297;-70
2022/01/28 07:12:40;;;;;;;16.77;11.67;;;1.40;99.90;;;;;;5054760;28;20596;-70
2022/01/28 07:15:08;;;;;;;20.07;13.20;;;1.40;99.90;;;;;;5054814;28;20232;-70
2022/01/28 07:17:35;;;;;;;18.00;13.80;;;1.40;99.90;;;;;;5054967;28;20558;-70
2022/01/28 07:20:04;;;;;;;20.33;13.97;;;1.40;99.90;;;;;;5057588;28;20194;-70
2022/01/28 07:22:31;;;;;;;24.33;15.37;;;1.40;99.90;;;;;;5061623;28;20197;-70
2022/01/28 07:24:57;;;;;;;21.73;14.83;;;1.40;99.90;;;;;;5062156;28;20201;-70
2022/01/28 07:27:24;;;;;;;21.30;15.67;;;1.40;99.90;;;;;;5062822;28;20267;-71
2022/01/28 07:29:51;;;;;;;29.57;14.80;;;1.40;99.90;;;;;;5061767;28;20198;-70
2022/01/28 07:32:18;;;;;;;19.40;13.67;;;1.40;99.90;;;;;;5062384;28;20198;-71
2022/01/28 07:34:46;;;;;;;24.83;15.53;;;1.50;99.90;;;;;;5058122;28;20201;-70
2022/01/28 07:37:14;;;;;;;25.50;14.20;;;1.50;99.90;;;;;;5055232;28;20364;-70
2022/01/28 07:39:41;;;;;;;21.20;14.10;;;1.50;99.90;;;;;;5054439;28;20538;-70
2022/01/28 07:42:08;;;;;;;25.07;15.17;;;1.50;99.90;;;;;;5054023;28;20263;-70
2022/01/28 07:44:35;;;;;;;24.87;15.10;;;1.50;99.90;;;;;;5055545;28;20255;-71
2022/01/28 07:47:01;;;;;;;25.53;15.03;;;1.50;99.90;;;;;;5057522;28;20202;-71
2022/01/28 07:49:28;;;;;;;21.60;13.60;;;1.50;99.90;;;;;;5054165;28;20208;-70
2022/01/28 07:51:55;;;;;;;25.60;14.93;;;1.60;99.90;;;;;;5054060;28;20227;-70
2022/01/28 07:54:23;;;;;;;24.57;14.70;;;1.70;99.90;;;;;;5053729;28;20229;-70
2022/01/28 07:56:53;;;;;;;26.60;14.40;;;1.70;99.90;;;;;;5053884;28;20226;-70
2022/01/28 07:59:20;;;;;;;23.13;11.03;;;1.70;99.90;;;;;;5054222;28;20207;-71
2022/01/28 08:01:47;;;;;;;23.90;11.73;;;1.90;99.90;;;;;;5054187;28;20244;-70
2022/01/28 08:04:13;;;;;;;24.83;11.67;;;1.90;99.90;;;;;;5053823;28;20198;-71
2022/01/28 08:06:41;;;;;;;19.67;11.40;;;2.00;99.90;;;;;;5054041;28;20205;-71
2022/01/28 08:09:07;;;;;;;17.30;10.03;;;2.00;99.90;;;;;;5053732;28;20292;-71
2022/01/28 08:11:35;;;;;;;17.37;11.40;;;2.00;99.90;;;;;;5054040;28;20197;-71
2022/01/28 08:14:03;;;;;;;21.00;9.80;;;2.00;99.90;;;;;;5054270;28;20259;-71
2022/01/28 08:16:30;;;;;;;14.00;9.30;;;2.10;99.90;;;;;;5054296;28;20381;-71
2022/01/28 08:18:56;;;;;;;20.83;9.43;;;2.10;99.90;;;;;;5053960;28;20278;-71
2022/01/28 08:21:23;;;;;;;15.80;8.97;;;2.10;99.90;;;;;;5054062;28;20259;-71
2022/01/28 08:23:50;;;;;;;15.53;9.80;;;2.10;99.90;;;;;;5053625;28;20255;-72
2022/01/28 08:26:18;;;;;;;13.53;9.23;;;2.10;99.90;;;;;;5053906;28;20251;-71
2022/01/28 08:28:47;;;;;;;14.60;9.03;;;2.00;99.90;;;;;;5055186;28;20255;-71
2022/01/28 08:31:14;;;;;;;17.70;9.53;;;2.10;99.90;;;;;;5052780;28;20303;-71
2022/01/28 08:33:41;;;;;;;16.87;10.17;;;2.10;99.90;;;;;;5054124;28;20198;-73
2022/01/28 08:36:08;;;;;;;20.30;10.17;;;2.10;99.90;;;;;;5053774;28;20209;-72
2022/01/28 08:38:38;;;;;;;20.37;10.47;;;2.10;99.90;;;;;;5053191;28;20201;-71
2022/01/28 08:41:06;;;;;;;19.57;10.50;;;2.10;99.90;;;;;;5054955;28;20200;-71
2022/01/28 08:43:33;;;;;;;16.03;9.50;;;2.20;99.90;;;;;;5053684;28;20198;-71
2022/01/28 08:46:01;;;;;;;14.87;9.20;;;2.30;99.90;;;;;;5053483;28;20205;-71
2022/01/28 08:48:28;;;;;;;13.07;9.57;;;2.30;99.90;;;;;;5053271;28;20205;-71
2022/01/28 08:50:54;;;;;;;15.47;10.37;;;2.20;99.90;;;;;;5053117;28;20197;-70
2022/01/28 08:53:21;;;;;;;17.67;10.00;;;2.30;99.90;;;;;;5053044;28;20230;-71
2022/01/28 08:55:48;;;;;;;16.90;9.63;;;2.30;99.90;;;;;;5053348;28;20205;-72
2022/01/28 08:58:15;;;;;;;16.53;10.73;;;2.30;99.90;;;;;;5053001;28;20228;-72
2022/01/28 09:00:46;;;;;;;15.73;8.87;;;2.30;99.90;;;;;;5053069;28;20239;-72
2022/01/28 09:03:15;;;;;;;14.47;9.53;;;2.30;99.90;;;;;;5053295;28;20198;-71
2022/01/28 09:05:41;;;;;;;16.53;9.37;;;2.30;99.90;;;;;;5053441;28;20194;-71
2022/01/28 09:08:09;;;;;;;14.43;8.67;;;2.40;99.90;;;;;;5053206;28;20201;-71
2022/01/28 09:10:38;;;;;;;15.13;8.77;;;2.50;99.90;;;;;;5054999;28;20198;-71
2022/01/28 09:13:23;;;;;;;13.80;8.43;;;2.60;99.90;;;;;;5061521;28;20684;-72
2022/01/28 09:15:50;;;;;;;14.13;8.57;;;2.70;99.90;;;;;;5062446;28;20197;-71
2022/01/28 09:18:19;;;;;;;12.10;7.63;;;2.70;99.90;;;;;;5061839;28;20263;-71
2022/01/28 09:20:47;;;;;;;8.87;6.80;;;2.80;99.90;;;;;;5060668;28;20193;-72
2022/01/28 09:23:14;;;;;;;9.83;6.83;;;2.90;99.90;;;;;;5061926;28;20209;-71
2022/01/28 09:25:41;;;;;;;12.00;6.93;;;3.00;99.90;;;;;;5061104;28;20291;-71
2022/01/28 09:28:08;;;;;;;9.53;6.10;;;3.10;99.90;;;;;;5060666;28;20194;-71
2022/01/28 09:30:35;;;;;;;7.40;6.40;;;3.30;99.90;;;;;;5057556;28;20200;-71
2022/01/28 09:33:03;;;;;;;10.63;5.70;;;3.10;99.90;;;;;;5053356;28;20194;-71
2022/01/28 09:35:31;;;;;;;9.33;5.40;;;2.80;99.90;;;;;;5053628;28;20202;-71
2022/01/28 09:37:58;;;;;;;10.43;6.50;;;2.60;99.90;;;;;;5053374;28;20226;-72
2022/01/28 09:40:25;;;;;;;10.00;5.40;;;2.80;99.90;;;;;;5052703;28;20565;-71
2022/01/28 09:42:53;;;;;;;7.87;5.13;;;3.10;99.90;;;;;;5055652;28;20195;-70
2022/01/28 09:45:23;;;;;;;12.23;5.60;;;3.10;99.90;;;;;;5056434;28;20269;-71
2022/01/28 09:47:53;;;;;;;6.80;4.83;;;3.40;99.90;;;;;;5056920;28;20217;-71
2022/01/28 09:50:22;;;;;;;5.93;4.33;;;3.40;99.90;;;;;;5056358;28;20623;-71
2022/01/28 09:52:51;;;;;;;6.60;4.20;;;3.10;99.90;;;;;;5056179;28;20318;-71
2022/01/28 09:55:18;;;;;;;8.50;5.20;;;3.40;99.90;;;;;;5056108;28;20197;-71
2022/01/28 09:57:45;;;;;;;8.83;5.50;;;3.30;99.90;;;;;;5056062;28;20227;-71
2022/01/28 10:00:13;;;;;;;8.13;6.07;;;3.50;99.90;;;;;;5056027;28;20665;-71
2022/01/28 10:02:51;;;;;;;8.53;6.20;;;3.60;99.90;;;;;;5056602;28;20208;-71
2022/01/28 10:05:20;;;;;;;8.07;6.13;;;4.10;99.90;;;;;;5056091;28;20205;-70
2022/01/28 10:08:09;;;;;;;9.20;6.47;;;4.00;99.90;;;;;;5056156;28;20617;-71
2022/01/28 10:10:49;;;;;;;9.97;6.37;;;4.30;99.90;;;;;;5056254;28;20653;-70
2022/01/28 10:13:19;;;;;;;10.83;7.13;;;4.40;99.90;;;;;;5056353;28;20247;-71
2022/01/28 10:15:59;;;;;;;9.70;6.97;;;4.20;99.90;;;;;;5055971;28;20209;-71
2022/01/28 10:18:46;;;;;;;8.73;6.73;;;4.20;99.90;;;;;;5056280;28;20220;-71
2022/01/28 10:21:26;;;;;;;11.07;7.77;;;3.90;99.90;;;;;;5056310;28;20200;-71
2022/01/28 10:24:07;;;;;;;14.67;9.13;;;3.80;99.90;;;;;;5055777;28;20656;-72
2022/01/28 10:26:37;;;;;;;11.50;8.33;;;3.70;99.90;;;;;;5055783;28;20201;-72
2022/01/28 10:29:07;;;;;;;10.60;8.00;;;3.80;99.90;;;;;;5055879;28;20602;-71
2022/01/28 10:31:42;;;;;;;11.57;8.10;;;3.70;99.90;;;;;;5056186;28;20196;-72
2022/01/28 10:34:18;;;;;;;11.40;8.17;;;3.90;99.90;;;;;;5055750;28;20656;-72
2022/01/28 10:36:47;;;;;;;14.03;7.30;;;4.20;99.90;;;;;;5055691;28;20200;-72
2022/01/28 10:39:17;;;;;;;12.47;8.50;;;3.70;99.90;;;;;;5055467;28;20665;-72
2022/01/28 10:41:56;;;;;;;10.13;7.60;;;3.50;99.90;;;;;;5055870;28;20204;-71
2022/01/28 10:44:24;;;;;;;12.63;8.03;;;3.40;99.90;;;;;;5055541;28;20659;-71
2022/01/28 10:46:54;;;;;;;12.53;7.83;;;3.60;99.90;;;;;;5055205;28;20219;-72
2022/01/28 10:49:28;;;;;;;10.40;7.13;;;3.80;99.90;;;;;;5055207;28;20213;-70
2022/01/28 10:51:55;;;;;;;14.53;7.47;;;3.80;99.90;;;;;;5056929;28;20185;-71
2022/01/28 10:54:24;;;;;;;10.43;7.27;;;3.60;99.90;;;;;;5055662;28;20643;-70
2022/01/28 10:56:54;;;;;;;12.27;7.20;;;3.50;99.90;;;;;;5055610;28;20253;-71
2022/01/28 10:59:23;;;;;;;9.93;6.57;;;3.50;99.90;;;;;;5055460;28;20259;-71
2022/01/28 11:01:50;;;;;;;11.37;6.97;;;3.40;99.90;;;;;;5055288;28;20248;-71
2022/01/28 11:04:19;;;;;;;16.37;8.60;;;3.30;99.90;;;;;;5054824;28;20198;-70
2022/01/28 11:06:47;;;;;;;17.07;9.87;;;3.40;99.90;;;;;;5055228;28;20198;-70
2022/01/28 11:09:16;;;;;;;14.90;8.73;;;3.50;99.90;;;;;;5055115;28;20256;-71
2022/01/28 11:11:45;;;;;;;12.27;7.60;;;3.50;99.90;;;;;;5055137;28;20676;-72
2022/01/28 11:14:12;;;;;;;18.77;8.73;;;3.60;99.90;;;;;;5055145;28;20202;-71
2022/01/28 11:16:40;;;;;;;17.20;9.07;;;3.60;99.90;;;;;;5055165;28;20257;-72
2022/01/28 11:19:09;;;;;;;11.77;7.70;;;3.70;99.90;;;;;;5055015;28;20234;-71
2022/01/28 11:21:51;;;;;;;15.53;7.50;;;3.50;99.90;;;;;;5054998;28;20198;-71
2022/01/28 11:24:33;;;;;;;17.57;7.67;;;3.30;99.90;;;;;;5058717;28;20229;-71
2022/01/28 11:27:10;;;;;;;16.27;8.67;;;3.20;99.90;;;;;;5055006;28;20718;-71
2022/01/28 11:29:37;;;;;;;15.20;8.40;;;3.20;99.90;;;;;;5055245;28;20197;-72
2022/01/28 11:32:14;;;;;;;14.13;8.47;;;3.20;99.90;;;;;;5054974;28;20204;-71
2022/01/28 11:34:56;;;;;;;12.83;8.10;;;3.30;99.90;;;;;;5055493;28;20243;-71
2022/01/28 11:37:28;;;;;;;14.13;8.33;;;3.30;99.90;;;;;;5054946;28;20310;-71
2022/01/28 11:40:05;;;;;;;15.40;8.40;;;3.30;99.90;;;;;;5055206;28;20252;-71
2022/01/28 11:42:34;;;;;;;14.53;7.80;;;3.10;99.90;;;;;;5055027;28;20205;-70
2022/01/28 11:45:01;;;;;;;16.07;8.60;;;3.00;99.90;;;;;;5055241;28;20199;-70
2022/01/28 11:47:31;;;;;;;10.23;6.60;;;2.80;99.90;;;;;;5055319;28;20213;-70
2022/01/28 11:50:00;;;;;;;11.20;5.93;;;2.60;99.90;;;;;;5054852;28;20236;-71
2022/01/28 11:52:30;;;;;;;15.17;7.67;;;2.40;99.90;;;;;;5054991;28;20241;-71
2022/01/28 11:54:58;;;;;;;15.30;6.77;;;2.40;99.90;;;;;;5055176;28;20642;-71
2022/01/28 11:57:26;;;;;;;11.40;6.30;;;2.10;99.90;;;;;;5054757;28;20228;-71
2022/01/28 12:00:23;;;;;;;14.00;7.77;;;2.00;99.90;;;;;;5054398;28;20200;-70
2022/01/28 12:02:51;;;;;;;12.40;5.50;;;1.80;99.90;;;;;;5054301;28;20257;-70
2022/01/28 12:05:54;;;;;;;13.77;6.57;;;1.60;99.90;;;;;;5054774;28;20570;-71
2022/01/28 12:08:21;;;;;;;14.83;7.00;;;1.60;99.90;;;;;;5054276;28;20198;-71
2022/01/28 12:10:50;;;;;;;11.30;7.30;;;1.60;99.90;;;;;;5054031;28;20244;-71
2022/01/28 12:13:18;;;;;;;16.50;8.83;;;1.70;99.90;;;;;;5054114;28;20224;-71
2022/01/28 12:16:12;;;;;;;17.33;9.67;;;1.90;99.90;;;;;;5054171;28;20201;-70
2022/01/28 12:18:48;;;;;;;19.17;10.07;;;2.00;99.90;;;;;;5055053;28;20228;-71
2022/01/28 12:21:16;;;;;;;16.63;10.43;;;2.20;99.90;;;;;;5054095;28;20247;-71
2022/01/28 12:23:44;;;;;;;20.33;11.07;;;2.30;99.90;;;;;;5054012;28;20271;-71
2022/01/28 12:26:14;;;;;;;14.67;9.20;;;2.40;99.90;;;;;;5053814;28;20201;-71
2022/01/28 12:28:46;;;;;;;16.13;9.50;;;2.50;99.90;;;;;;5053626;28;20244;-71
2022/01/28 12:31:19;;;;;;;22.40;10.77;;;2.50;99.90;;;;;;5053761;28;20202;-70
2022/01/28 12:33:48;;;;;;;18.93;10.33;;;2.60;99.90;;;;;;5054218;28;20206;-71
2022/01/28 12:36:16;;;;;;;21.70;9.90;;;2.80;99.90;;;;;;5053692;28;20202;-71
2022/01/28 12:38:56;;;;;;;17.80;8.93;;;2.80;99.90;;;;;;5053434;28;20229;-71
2022/01/28 12:41:24;;;;;;;21.20;8.50;;;2.90;99.90;;;;;;5053624;28;20244;-72
2022/01/28 12:43:51;;;;;;;16.60;9.17;;;3.00;99.90;;;;;;5057246;28;20558;-72
2022/01/28 12:46:21;;;;;;;15.87;8.30;;;3.00;99.90;;;;;;5066989;28;20212;-85
2022/01/28 12:48:48;;;;;;;15.53;6.93;;;3.00;99.90;;;;;;5055145;28;20201;-70
2022/01/28 12:51:16;;;;;;;18.10;7.23;;;2.90;99.90;;;;;;5053429;28;20201;-70
2022/01/28 12:53:44;;;;;;;10.93;5.20;;;2.70;99.90;;;;;;5054275;28;20236;-71
2022/01/28 12:56:13;;;;;;;14.30;4.87;;;2.70;99.90;;;;;;5054653;28;20225;-71
2022/01/28 12:58:46;;;;;;;14.27;4.10;;;2.80;99.90;;;;;;5053989;28;20247;-71
2022/01/28 13:01:14;;;;;;;11.03;4.20;;;2.80;99.90;;;;;;5054610;28;20669;-71
2022/01/28 13:03:49;;;;;;;14.40;4.30;;;2.90;99.90;;;;;;5056884;28;20224;-72
2022/01/28 13:06:28;;;;;;;12.17;4.27;;;3.00;99.90;;;;;;5060584;28;20197;-71
2022/01/28 13:08:56;;;;;;;13.80;3.20;;;3.10;99.90;;;;;;5060418;28;20227;-71
2022/01/28 13:11:24;;;;;;;14.97;3.57;;;3.30;99.90;;;;;;5060884;28;20207;-71
2022/01/28 13:13:52;;;;;;;16.93;4.83;;;3.30;99.90;;;;;;5061047;28;20228;-71
2022/01/28 13:16:35;;;;;;;12.53;4.10;;;3.30;99.90;;;;;;5059724;28;20202;-71
2022/01/28 13:19:05;;;;;;;9.17;3.53;;;4.30;99.90;;;;;;5059798;28;20231;-71
2022/01/28 13:21:32;;;;;;;8.97;4.60;;;4.00;99.90;;;;;;5062256;28;20199;-72
2022/01/28 13:24:07;;;;;;;9.93;4.20;;;3.70;99.90;;;;;;5062794;28;20573;-71
2022/01/28 13:26:36;;;;;;;12.53;4.00;;;3.40;99.90;;;;;;5060663;28;20202;-71
2022/01/28 13:29:08;;;;;;;8.70;4.10;;;3.20;99.90;;;;;;5059511;28;20212;-71
2022/01/28 13:31:35;;;;;;;12.37;4.07;;;3.00;99.90;;;;;;5058338;28;20198;-71
2022/01/28 13:34:06;;;;;;;10.40;3.40;;;3.00;99.90;;;;;;5057012;28;20202;-71
2022/01/28 13:36:46;;;;;;;9.67;3.83;;;3.00;99.90;;;;;;5057121;28;20588;-71
2022/01/28 13:39:18;;;;;;;12.13;4.10;;;3.00;99.90;;;;;;5057195;28;20716;-71
2022/01/28 13:41:50;;;;;;;13.93;3.70;;;3.00;99.90;;;;;;5057390;28;20194;-71